Beallwood, Georgia
Current Conditions -  °F | °C
As of 3:51 PM on Friday 19 Dec 2014 (Local Time) from KCSG Reporting Station
Clear Clear  
Wind Chill: 55°   Ceiling: Unl
Heat Index: 55°   Visibility: 10mi
Dew Point: 35°   Wind: 5mph
Humidity: 47%   Direction: 320°NW
Pressure: 30.1"   Gusts: NA
Location:  32.5529°N, 84.9996°W
Report Text: KCSG 192051Z 32004KT 10SM CLR 13/02 A3010 RMK AO2 SLP191 T01280017 56018
Loading
Personal Weather Stations






























Interactive Weather Map New forecast layout! Learn more

10-Day Weather Forecast

Advertisements
Track Severe Weather on mobile